Pride of Baltimore II — WUW2120 — position and weather

sailwx.info

Track history (hours):
 
Tides and Currents Weather Stations Pressure Air Temp Water Temp Dewpoint Dewpoint Depression Visibility Wind Speed Wind Dir Waves Ship Positions

Pride of Baltimore II (United States)

Reproduction of an 1812-era Baltimore Clipper privateer.

Ship's website: http://www.pride2.org/

Owner: PRIDE OF BALTIMORE INC, BALTIMORE, MD. More information available from US FCC via Universal Licensing System and Coast Guard Vessel Documentation Center.

Last reported at 2017-Sep-22 02:00 UTC. Time now 2017-Sep-22 17:02 UTC.
Position N 39°16' W 076°34'.

Type: Sailing vessel. MMSI: 303302000.

Date/timePositionNaut miles runAvg speedWind from/ knotsBaromVisibWave heightAir tempDewpointWater temp
2017-Sep-22 02:00N 39°16' W 076°34'0 0.0
2017-Sep-22 01:30N 39°16' W 076°34'0 0.0
2017-Sep-22 01:00N 39°16' W 076°34'0 0.0
2017-Sep-22 00:30N 39°16' W 076°34'2 4.2
2017-Sep-22 00:01N 39°17' W 076°37'0 0.1
2017-Sep-21 23:30N 39°17' W 076°37'2 4.2
2017-Sep-21 23:00N 39°16' W 076°34'1 1.6
2017-Sep-21 22:28N 39°17' W 076°35'1 2.0
2017-Sep-21 22:00N 39°17' W 076°36'0 0.7
2017-Sep-21 21:30N 39°17' W 076°37'0 0.0
2017-Sep-21 21:00N 39°17' W 076°37'0 0.0
2017-Sep-21 20:30N 39°17' W 076°37'0 0.0
2017-Sep-21 20:00N 39°17' W 076°37'2 3.2
2017-Sep-21 19:30N 39°16' W 076°35'1 1.1
2017-Sep-21 19:00N 39°16' W 076°34'0 0.0
2017-Sep-21 18:30N 39°16' W 076°34'0 0.0
2017-Sep-21 18:00N 39°16' W 076°34'5443.1
2017-Sep-21 18:00N 39°12' W 076°30'510.8 010 / 61016.410.8 22.117.125.0
2017-Sep-21 17:30N 39°16' W 076°34'0 0.0
2017-Sep-21 17:00N 39°16' W 076°34'0 0.0
2017-Sep-21 16:30N 39°16' W 076°34'0 0.0
2017-Sep-21 16:00N 39°16' W 076°34'0 0.0
2017-Sep-21 15:30N 39°16' W 076°34'0 0.0
2017-Sep-21 15:00N 39°16' W 076°34'0 0.0
2017-Sep-21 14:30N 39°16' W 076°34'0 0.0
2017-Sep-21 14:00N 39°16' W 076°34'0 0.0
2017-Sep-21 13:30N 39°16' W 076°34'0 0.0
2017-Sep-21 13:00N 39°16' W 076°34'0 0.0
2017-Sep-21 12:30N 39°16' W 076°34'0 0.0
2017-Sep-21 12:00N 39°16' W 076°34'0 0.0
2017-Sep-21 11:30N 39°16' W 076°34'0 0.0
2017-Sep-21 11:00N 39°16' W 076°34'0 0.0
2017-Sep-21 10:30N 39°16' W 076°34'0 0.0
2017-Sep-21 10:00N 39°16' W 076°34'0 0.0
2017-Sep-21 09:30N 39°16' W 076°34'0 0.0
2017-Sep-21 09:00N 39°16' W 076°34'0 0.0
2017-Sep-21 08:30N 39°16' W 076°34'0 0.0
2017-Sep-21 08:00N 39°16' W 076°34'0 0.0
2017-Sep-21 07:30N 39°16' W 076°34'0 0.0
2017-Sep-21 07:00N 39°16' W 076°34'0 0.0
2017-Sep-21 06:30N 39°16' W 076°34'0 0.0
2017-Sep-21 06:00N 39°16' W 076°34'0 0.0
2017-Sep-21 05:30N 39°16' W 076°34'0 0.0
2017-Sep-21 05:00N 39°16' W 076°34'0 0.0
2017-Sep-21 04:30N 39°16' W 076°34'0 0.0
2017-Sep-21 04:00N 39°16' W 076°34'0 0.0
2017-Sep-21 03:30N 39°16' W 076°34'0 0.0
2017-Sep-21 03:00N 39°16' W 076°34'0 0.0
2017-Sep-21 02:30N 39°16' W 076°34'0 0.0
2017-Sep-21 02:00N 39°16' W 076°34'0 0.0
2017-Sep-21 01:30N 39°16' W 076°34'0 0.6
2017-Sep-21 01:00N 39°16' W 076°34'1 2.6
2017-Sep-21 00:29N 39°15' W 076°34'0 0.0
2017-Sep-20 23:59N 39°15' W 076°34'0 0.0
2017-Sep-20 23:29N 39°15' W 076°34'0 0.0
2017-Sep-20 22:59N 39°15' W 076°34'0 0.0
2017-Sep-20 22:29N 39°15' W 076°34'0 0.0
2017-Sep-20 21:59N 39°15' W 076°34'0 0.0
2017-Sep-20 21:29N 39°15' W 076°34'0 0.0
2017-Sep-20 20:59N 39°15' W 076°34'0 0.0
2017-Sep-20 20:29N 39°15' W 076°34'0 0.0
2017-Sep-20 19:59N 39°15' W 076°34'0 0.2
2017-Sep-20 19:30N 39°15' W 076°34'1 2.8
2017-Sep-20 18:59N 39°16' W 076°34'0 0.0
2017-Sep-20 18:29N 39°16' W 076°34'510.9
2017-Sep-20 18:00N 39°12' W 076°30'5373.6 330 / 91012.810.8 31.818.326.0
2017-Sep-20 17:59N 39°16' W 076°34'0 0.0
2017-Sep-20 17:29N 39°16' W 076°34'0 0.0
2017-Sep-20 16:59N 39°16' W 076°34'0 0.0
2017-Sep-20 16:29N 39°16' W 076°34'0 0.0
2017-Sep-20 15:59N 39°16' W 076°34'0 0.0
2017-Sep-20 15:29N 39°16' W 076°34'0 0.0
2017-Sep-20 14:59N 39°16' W 076°34'0 0.0
2017-Sep-20 13:59N 39°16' W 076°34'0 0.0
2017-Sep-20 13:29N 39°16' W 076°34'0 0.0
2017-Sep-20 12:59N 39°16' W 076°34'0 0.0
2017-Sep-20 12:29N 39°16' W 076°34'0 0.0
2017-Sep-20 11:59N 39°16' W 076°34'0 0.0
2017-Sep-20 11:28N 39°16' W 076°34'0 0.0
2017-Sep-20 10:58N 39°16' W 076°34'0 0.0
2017-Sep-20 10:28N 39°16' W 076°34'0 0.0
2017-Sep-20 09:58N 39°16' W 076°34'0 0.0
2017-Sep-20 09:28N 39°16' W 076°34'0 0.0
2017-Sep-20 08:58N 39°16' W 076°34'0 0.0
2017-Sep-20 08:28N 39°16' W 076°34'0 0.0
2017-Sep-20 07:58N 39°16' W 076°34'0 0.0
2017-Sep-20 07:28N 39°16' W 076°34'0 0.0
2017-Sep-20 06:58N 39°16' W 076°34'0 0.0
2017-Sep-20 06:28N 39°16' W 076°34'0 0.0
2017-Sep-20 05:58N 39°16' W 076°34'0 0.0
2017-Sep-20 05:28N 39°16' W 076°34'0 0.0
2017-Sep-20 04:58N 39°16' W 076°34'0 0.0
2017-Sep-20 04:28N 39°16' W 076°34'0 0.0
2017-Sep-20 03:58N 39°16' W 076°34'0 0.0
2017-Sep-20 03:28N 39°16' W 076°34'0 0.0
2017-Sep-20 02:58N 39°16' W 076°34'0 0.0
2017-Sep-20 02:28N 39°16' W 076°34'0 0.0
2017-Sep-20 01:58N 39°16' W 076°34'0 0.0
2017-Sep-20 01:28N 39°16' W 076°34'0 0.0
2017-Sep-20 00:58N 39°16' W 076°34'0 0.0
2017-Sep-20 00:28N 39°16' W 076°34'0 0.0
2017-Sep-19 23:58N 39°16' W 076°34'1 1.8
2017-Sep-19 23:30N 39°17' W 076°35'1 1.4
2017-Sep-19 23:00N 39°16' W 076°36'0 0.0
2017-Sep-19 22:30N 39°16' W 076°36'0 0.0
2017-Sep-19 22:00N 39°16' W 076°36'0 0.0
2017-Sep-19 21:30N 39°16' W 076°36'0 0.0
2017-Sep-19 21:00N 39°16' W 076°36'0 0.0
2017-Sep-19 20:30N 39°16' W 076°36'0 0.0
2017-Sep-19 20:00N 39°16' W 076°36'0 0.0
2017-Sep-19 19:30N 39°16' W 076°36'0 0.0
2017-Sep-19 19:00N 39°16' W 076°36'0 0.3
2017-Sep-19 18:30N 39°17' W 076°36'1 1.6
2017-Sep-19 18:00N 39°16' W 076°35'1 1.2
2017-Sep-19 17:30N 39°16' W 076°34'0 0.0
2017-Sep-19 17:00N 39°16' W 076°34'0 0.0
2017-Sep-19 16:30N 39°16' W 076°34'0 0.0
2017-Sep-19 16:00N 39°16' W 076°34'0 0.0
2017-Sep-19 15:30N 39°16' W 076°34'0 0.0
2017-Sep-19 15:00N 39°16' W 076°34'0 0.0
2017-Sep-19 14:30N 39°16' W 076°34'0 0.0
2017-Sep-19 14:00N 39°16' W 076°34'0 0.0
2017-Sep-19 13:30N 39°16' W 076°34'0 0.0
2017-Sep-19 13:00N 39°16' W 076°34'0 0.0
2017-Sep-19 12:30N 39°16' W 076°34'0 0.0
2017-Sep-19 12:00N 39°16' W 076°34'0 0.0
2017-Sep-19 11:30N 39°16' W 076°34'0 0.0
2017-Sep-19 11:00N 39°16' W 076°34'0 0.0
2017-Sep-19 10:30N 39°16' W 076°34'0 0.0
2017-Sep-19 10:00N 39°16' W 076°34'0 0.0
2017-Sep-19 09:30N 39°16' W 076°34'0 0.0
2017-Sep-19 09:00N 39°16' W 076°34'0 0.0
2017-Sep-19 08:30N 39°16' W 076°34'0 0.0
2017-Sep-19 08:00N 39°16' W 076°34'0 0.0
2017-Sep-19 07:30N 39°16' W 076°34'0 0.0
2017-Sep-19 07:00N 39°16' W 076°34'0 0.0
2017-Sep-19 06:30N 39°16' W 076°34'0 0.0
2017-Sep-19 06:00N 39°16' W 076°34'0 0.0
2017-Sep-19 05:27N 39°16' W 076°34'0 0.0
2017-Sep-19 05:00N 39°16' W 076°34'0 0.0
2017-Sep-19 04:30N 39°16' W 076°34'0 0.0
2017-Sep-19 04:00N 39°16' W 076°34'0 0.0
2017-Sep-19 03:30N 39°16' W 076°34'0 0.0
2017-Sep-19 03:00N 39°16' W 076°34'0 0.0
2017-Sep-19 02:30N 39°16' W 076°34'0 0.0
2017-Sep-19 02:00N 39°16' W 076°34'0 0.0
2017-Sep-19 01:30N 39°16' W 076°34'0 0.0
2017-Sep-19 01:00N 39°16' W 076°34'0 0.0
2017-Sep-19 00:30N 39°16' W 076°34'0 0.0
2017-Sep-19 00:00N 39°16' W 076°34'0 0.0
2017-Sep-18 23:30N 39°16' W 076°34'0 0.0
2017-Sep-18 23:00N 39°16' W 076°34'0 0.0
2017-Sep-18 22:30N 39°16' W 076°34'0 0.0
2017-Sep-18 22:00N 39°16' W 076°34'0 0.0
2017-Sep-18 21:29N 39°16' W 076°34'0 0.0
2017-Sep-18 20:59N 39°16' W 076°34'0 0.0
2017-Sep-18 20:29N 39°16' W 076°34'0 0.0
2017-Sep-18 19:59N 39°16' W 076°34'0 0.0
2017-Sep-18 19:29N 39°16' W 076°34'0 0.0
2017-Sep-18 18:59N 39°16' W 076°34'0 0.0
2017-Sep-18 18:29N 39°16' W 076°34'510.6
2017-Sep-18 18:00N 39°12' W 076°30'52716.1 140 / 31018.4 5.4 23.719.425.2
2017-Sep-18 17:59N 39°16' W 076°34'0 0.0
2017-Sep-18 17:29N 39°16' W 076°34'0 0.0
2017-Sep-18 16:59N 39°16' W 076°34'0 0.0
2017-Sep-18 16:29N 39°16' W 076°34'0 0.0
2017-Sep-18 15:59N 39°16' W 076°34'0 0.0
2017-Sep-18 15:29N 39°16' W 076°34'0 0.0
2017-Sep-18 14:59N 39°16' W 076°34'0 0.0
2017-Sep-18 14:29N 39°16' W 076°34'0 0.0
2017-Sep-18 13:59N 39°16' W 076°34'0 0.0
2017-Sep-18 13:29N 39°16' W 076°34'0 0.0
2017-Sep-18 12:59N 39°16' W 076°34'0 0.0
2017-Sep-18 12:29N 39°16' W 076°34'0 0.0
2017-Sep-18 11:59N 39°16' W 076°34'0 0.0
2017-Sep-18 11:29N 39°16' W 076°34'0 0.0
2017-Sep-18 10:59N 39°16' W 076°34'0 0.0
2017-Sep-18 10:29N 39°16' W 076°34'0 0.0
2017-Sep-18 09:59N 39°16' W 076°34'0 0.0
2017-Sep-18 09:29N 39°16' W 076°34'0 0.0
2017-Sep-18 08:59N 39°16' W 076°34'0 0.0
2017-Sep-18 08:29N 39°16' W 076°34'0 0.0
2017-Sep-18 07:59N 39°16' W 076°34'0 0.0
2017-Sep-18 07:29N 39°16' W 076°34'0 0.0
2017-Sep-18 06:59N 39°16' W 076°34'0 0.0
2017-Sep-18 06:29N 39°16' W 076°34'0 0.0
2017-Sep-18 05:59N 39°16' W 076°34'0 0.0
2017-Sep-18 05:29N 39°16' W 076°34'0 0.0
2017-Sep-18 04:59N 39°16' W 076°34'0 0.0
2017-Sep-18 04:29N 39°16' W 076°34'0 0.0
2017-Sep-18 03:59N 39°16' W 076°34'0 0.0
2017-Sep-18 03:29N 39°16' W 076°34'0 0.0
2017-Sep-18 02:59N 39°16' W 076°34'0 0.0
2017-Sep-18 02:29N 39°16' W 076°34'0 0.0
2017-Sep-18 01:59N 39°16' W 076°34'0 0.0
2017-Sep-18 01:29N 39°16' W 076°34'0 0.0
2017-Sep-18 00:59N 39°16' W 076°34'0 0.0
2017-Sep-18 00:29N 39°16' W 076°34'0 0.0
2017-Sep-17 23:59N 39°16' W 076°34'0 0.0
2017-Sep-17 23:29N 39°16' W 076°34'0 0.0
2017-Sep-17 22:59N 39°16' W 076°34'0 0.0
2017-Sep-17 22:29N 39°16' W 076°34'0 0.0
2017-Sep-17 21:59N 39°16' W 076°34'0 0.0
2017-Sep-17 21:29N 39°16' W 076°34'0 0.0
2017-Sep-17 20:59N 39°16' W 076°34'0 1.0
2017-Sep-17 20:30N 39°16' W 076°35'2 0.5
2017-Sep-17 16:52N 39°17' W 076°37'0 0.0
2017-Sep-17 15:10N 39°17' W 076°37'0 0.0
2017-Sep-17 14:52N 39°17' W 076°37'0 0.0
2017-Sep-17 14:25N 39°17' W 076°37'0 0.0
2017-Sep-17 13:58N 39°17' W 076°37'0 0.0
2017-Sep-17 13:28N 39°17' W 076°37'0 0.0
2017-Sep-17 12:55N 39°17' W 076°37'0 0.0
2017-Sep-17 12:28N 39°17' W 076°37'0 0.0
2017-Sep-17 11:52N 39°17' W 076°37'0 0.0
2017-Sep-17 11:28N 39°17' W 076°37'0 0.0
2017-Sep-17 10:58N 39°17' W 076°37'0 0.0
2017-Sep-17 10:28N 39°17' W 076°37'0 0.0
2017-Sep-17 09:52N 39°17' W 076°37'0 0.0
2017-Sep-17 08:10N 39°17' W 076°37'0 0.0
2017-Sep-17 07:43N 39°17' W 076°37'0 0.0
2017-Sep-17 07:16N 39°17' W 076°37'0 0.0
2017-Sep-17 06:52N 39°17' W 076°37'0 0.0
2017-Sep-17 06:28N 39°17' W 076°37'0 0.0
2017-Sep-17 05:58N 39°17' W 076°37'0 0.0
2017-Sep-17 05:28N 39°17' W 076°37'0 0.0
2017-Sep-17 04:58N 39°17' W 076°37'0 0.0
2017-Sep-17 04:28N 39°17' W 076°37'0 0.0
2017-Sep-17 03:58N 39°17' W 076°37'0 0.0
2017-Sep-17 03:28N 39°17' W 076°37'0 0.0
2017-Sep-17 02:58N 39°17' W 076°37'0 0.0
2017-Sep-17 02:28N 39°17' W 076°37'0 0.0
2017-Sep-17 01:58N 39°17' W 076°37'0 0.0
2017-Sep-17 01:28N 39°17' W 076°37'0 0.0
2017-Sep-17 00:58N 39°17' W 076°37'0 0.0
2017-Sep-17 00:28N 39°17' W 076°37'0 0.0
2017-Sep-17 00:01N 39°17' W 076°37'0 0.0
2017-Sep-16 23:31N 39°17' W 076°37'0 0.0
2017-Sep-16 23:00N 39°17' W 076°37'0 0.0
2017-Sep-16 22:30N 39°17' W 076°37'0 0.0
2017-Sep-16 22:00N 39°17' W 076°37'0 0.0
2017-Sep-16 21:30N 39°17' W 076°37'0 0.0
2017-Sep-16 21:00N 39°17' W 076°37'1 2.9
2017-Sep-16 20:30N 39°16' W 076°35'1 1.8
2017-Sep-16 20:00N 39°16' W 076°35'0 0.1
2017-Sep-16 19:31N 39°16' W 076°35'2 3.5
2017-Sep-16 19:00N 39°17' W 076°36'0 0.7
2017-Sep-16 18:28N 39°17' W 076°37'0 0.0
2017-Sep-16 17:58N 39°17' W 076°37'0 0.0
2017-Sep-16 17:28N 39°17' W 076°37'0 0.0
2017-Sep-16 16:55N 39°17' W 076°37'0 0.0
2017-Sep-16 16:25N 39°17' W 076°37'0 0.0
2017-Sep-16 15:55N 39°17' W 076°37'0 0.0
2017-Sep-16 15:22N 39°17' W 076°37'0 0.0
2017-Sep-16 14:58N 39°17' W 076°37'0 0.0
2017-Sep-16 14:28N 39°17' W 076°37'0 0.0
2017-Sep-16 13:58N 39°17' W 076°37'0 0.0
2017-Sep-16 13:28N 39°17' W 076°37'0 0.0
2017-Sep-16 12:58N 39°17' W 076°37'0 0.0
2017-Sep-16 12:28N 39°17' W 076°37'0 0.0
2017-Sep-16 11:58N 39°17' W 076°37'0 0.0
2017-Sep-16 11:28N 39°17' W 076°37'0 0.0
2017-Sep-16 10:58N 39°17' W 076°37'0 0.0
2017-Sep-16 10:28N 39°17' W 076°37'0 0.0
2017-Sep-16 09:58N 39°17' W 076°37'0 0.0
2017-Sep-16 09:28N 39°17' W 076°37'0 0.0
2017-Sep-16 08:58N 39°17' W 076°37'0 0.0
2017-Sep-16 08:28N 39°17' W 076°37'0 0.0
2017-Sep-16 07:58N 39°17' W 076°37'0 0.0
2017-Sep-16 07:28N 39°17' W 076°37'0 0.0
2017-Sep-16 06:58N 39°17' W 076°37'0 0.0
2017-Sep-16 06:28N 39°17' W 076°37'0 0.0
2017-Sep-16 05:58N 39°17' W 076°37'0 0.0
2017-Sep-16 05:28N 39°17' W 076°37'0 0.0
2017-Sep-16 04:58N 39°17' W 076°37'0 0.0
2017-Sep-16 04:28N 39°17' W 076°37'0 0.0
2017-Sep-16 03:55N 39°17' W 076°37'0 0.0
2017-Sep-16 03:28N 39°17' W 076°37'0 0.0
2017-Sep-16 02:58N 39°17' W 076°37'0 0.0
2017-Sep-16 02:28N 39°17' W 076°37'0 0.0
2017-Sep-16 01:58N 39°17' W 076°37'0 0.0
2017-Sep-16 01:28N 39°17' W 076°37'0 0.0
2017-Sep-16 00:58N 39°17' W 076°37'0 0.0
2017-Sep-16 00:28N 39°17' W 076°37'0 0.0
2017-Sep-15 23:58N 39°17' W 076°37'0 0.0
2017-Sep-15 23:28N 39°17' W 076°37'0 0.0
2017-Sep-15 22:58N 39°17' W 076°37'0 0.0
2017-Sep-15 22:25N 39°17' W 076°37'0 0.0
2017-Sep-15 21:49N 39°17' W 076°37'0 0.0
2017-Sep-15 21:28N 39°17' W 076°37'0 0.0
2017-Sep-15 20:58N 39°17' W 076°37'0 0.0
2017-Sep-15 20:28N 39°17' W 076°37'0 0.0
2017-Sep-15 19:58N 39°17' W 076°37'0 0.0
2017-Sep-15 19:28N 39°17' W 076°37'0 0.0
2017-Sep-15 18:58N 39°17' W 076°37'0 0.3
2017-Sep-15 18:30N 39°17' W 076°36'1 1.9
2017-Sep-15 18:01N 39°17' W 076°35'3 5.6
2017-Sep-15 17:31N 39°14' W 076°33'1 2.9
2017-Sep-15 17:01N 39°14' W 076°32'2 3.4
2017-Sep-15 16:31N 39°12' W 076°31'1 2.6
2017-Sep-15 16:00N 39°12' W 076°29'1 1.9
2017-Sep-15 15:30N 39°13' W 076°29'1 2.8
2017-Sep-15 15:00N 39°12' W 076°31'4 7.0
2017-Sep-15 14:30N 39°15' W 076°34'3 5.0
2017-Sep-15 14:01N 39°17' W 076°36'0 0.0
2017-Sep-15 13:30N 39°17' W 076°36'1 1.6
2017-Sep-15 12:58N 39°17' W 076°37'0 0.0
2017-Sep-15 12:28N 39°17' W 076°37'0 0.0
2017-Sep-15 11:58N 39°17' W 076°37'0 0.0
2017-Sep-15 11:28N 39°17' W 076°37'0 0.0
2017-Sep-15 10:58N 39°17' W 076°37'0 0.0
2017-Sep-15 10:28N 39°17' W 076°37'0 0.0
2017-Sep-15 09:58N 39°17' W 076°37'0 0.0
2017-Sep-15 09:25N 39°17' W 076°37'0 0.0
2017-Sep-15 08:58N 39°17' W 076°37'0 0.0
2017-Sep-15 08:28N 39°17' W 076°37'0 0.0
2017-Sep-15 07:58N 39°17' W 076°37'0 0.0
2017-Sep-15 07:31N 39°17' W 076°37'0 0.0
2017-Sep-15 07:01N 39°17' W 076°37'0 0.0
2017-Sep-15 06:30N 39°17' W 076°37'0 0.0
2017-Sep-15 06:00N 39°17' W 076°37'0 0.0
2017-Sep-15 05:30N 39°17' W 076°37'0 0.0
2017-Sep-15 05:00N 39°17' W 076°37'0 0.0
2017-Sep-15 04:30N 39°17' W 076°37'0 0.0
2017-Sep-15 04:00N 39°17' W 076°37'0 0.0
2017-Sep-15 03:30N 39°17' W 076°37'0 0.0
2017-Sep-15 03:00N 39°17' W 076°37'0 0.0
2017-Sep-15 02:30N 39°17' W 076°37'0 0.0
2017-Sep-15 02:00N 39°17' W 076°37'0 0.0
2017-Sep-15 01:27N 39°17' W 076°37'0 0.0
2017-Sep-15 01:00N 39°17' W 076°37'0 0.0
2017-Sep-15 00:30N 39°17' W 076°37'0 0.0
2017-Sep-15 00:00N 39°17' W 076°37'0 0.0
2017-Sep-14 23:27N 39°17' W 076°37'1 1.1
2017-Sep-14 23:01N 39°17' W 076°36'2 4.8
2017-Sep-14 22:31N 39°15' W 076°34'1 1.5
2017-Sep-14 22:00N 39°16' W 076°34'2 4.4
2017-Sep-14 21:31N 39°17' W 076°37'0 0.0
2017-Sep-14 20:56N 39°17' W 076°37'0 0.0
2017-Sep-14 20:26N 39°17' W 076°37'0 0.0
2017-Sep-14 19:59N 39°17' W 076°37'0 0.0
2017-Sep-14 19:29N 39°17' W 076°37'0 0.0
2017-Sep-14 18:56N 39°17' W 076°37'0 1.1
2017-Sep-14 18:30N 39°17' W 076°36'2 3.3
2017-Sep-14 18:00N 39°16' W 076°34'0 0.0
2017-Sep-14 17:30N 39°16' W 076°34'0 0.0
2017-Sep-14 17:00N 39°16' W 076°34'0 0.9
2017-Sep-14 16:30N 39°16' W 076°35'0 0.3
2017-Sep-14 16:00N 39°16' W 076°34'0 1.0
2017-Sep-14 15:30N 39°15' W 076°34'1 1.8
2017-Sep-14 14:59N 39°16' W 076°34'0 0.0
2017-Sep-14 14:28N 39°16' W 076°34'0 0.0
2017-Sep-14 13:58N 39°16' W 076°34'0 0.0
2017-Sep-14 13:28N 39°16' W 076°34'0 0.0
2017-Sep-14 12:58N 39°16' W 076°34'0 0.0
2017-Sep-14 12:28N 39°16' W 076°34'0 0.0
2017-Sep-14 11:58N 39°16' W 076°34'0 0.0
2017-Sep-14 11:28N 39°16' W 076°34'0 0.0
2017-Sep-14 10:58N 39°16' W 076°34'0 0.0
2017-Sep-14 10:28N 39°16' W 076°34'0 0.0
2017-Sep-14 09:58N 39°16' W 076°34'0 0.0
2017-Sep-14 09:28N 39°16' W 076°34'0 0.0
2017-Sep-14 08:58N 39°16' W 076°34'0 0.0
2017-Sep-14 08:28N 39°16' W 076°34'0 0.0
2017-Sep-14 07:58N 39°16' W 076°34'0 0.0
2017-Sep-14 07:28N 39°16' W 076°34'0 0.0
2017-Sep-14 06:58N 39°16' W 076°34'0 0.0
2017-Sep-14 06:28N 39°16' W 076°34'0 0.0
2017-Sep-14 05:58N 39°16' W 076°34'0 0.0
2017-Sep-14 05:28N 39°16' W 076°34'0 0.0
2017-Sep-14 04:58N 39°16' W 076°34'0 0.0
2017-Sep-14 04:28N 39°16' W 076°34'0 0.0
2017-Sep-14 03:58N 39°16' W 076°34'0 0.0
2017-Sep-14 03:28N 39°16' W 076°34'0 0.0
2017-Sep-14 02:58N 39°16' W 076°34'0 0.0
2017-Sep-14 02:28N 39°16' W 076°34'0 0.0
2017-Sep-14 01:58N 39°16' W 076°34'0 0.0
2017-Sep-14 01:28N 39°16' W 076°34'0 0.0
2017-Sep-14 00:58N 39°16' W 076°34'0 0.5
2017-Sep-14 00:30N 39°16' W 076°34'2 3.8
2017-Sep-14 00:00N 39°17' W 076°37'2 3.7
2017-Sep-13 23:30N 39°16' W 076°35'1 1.1
2017-Sep-13 23:00N 39°16' W 076°35'1 1.8
2017-Sep-13 22:31N 39°16' W 076°35'1 2.8
2017-Sep-13 21:59N 39°17' W 076°37'0 0.0
2017-Sep-13 21:29N 39°17' W 076°37'0 0.0
2017-Sep-13 20:50N 39°17' W 076°37'0 0.0
2017-Sep-13 20:16N 39°17' W 076°37'0 0.0
2017-Sep-13 19:58N 39°17' W 076°37'0 0.0
2017-Sep-13 19:28N 39°17' W 076°37'0 0.0
2017-Sep-13 18:52N 39°17' W 076°37'0 0.0
2017-Sep-13 18:28N 39°17' W 076°37'0 0.0
2017-Sep-13 17:58N 39°17' W 076°37'0 0.0
2017-Sep-13 17:28N 39°17' W 076°37'0 0.4
2017-Sep-13 17:00N 39°17' W 076°36'2 3.8
2017-Sep-13 16:30N 39°15' W 076°35'0 0.8
2017-Sep-13 16:00N 39°16' W 076°35'1 2.2
2017-Sep-13 15:30N 39°17' W 076°35'1 2.3
2017-Sep-13 14:58N 39°17' W 076°37'0 0.8
2017-Sep-13 14:30N 39°17' W 076°36'2 3.4
2017-Sep-13 14:00N 39°16' W 076°34'0 0.0
2017-Sep-13 13:30N 39°16' W 076°34'0 0.0
2017-Sep-13 13:00N 39°16' W 076°34'0 0.0
2017-Sep-13 12:30N 39°16' W 076°34'0 0.0
2017-Sep-13 12:00N 39°16' W 076°34'0 0.0
2017-Sep-13 11:30N 39°16' W 076°34'0 0.0
2017-Sep-13 11:00N 39°16' W 076°34'0 0.0
2017-Sep-13 10:30N 39°16' W 076°34'0 0.0
2017-Sep-13 10:00N 39°16' W 076°34'0 0.0
2017-Sep-13 09:30N 39°16' W 076°34'0 0.0
2017-Sep-13 09:00N 39°16' W 076°34'0 0.0
2017-Sep-13 08:30N 39°16' W 076°34'0 0.0
2017-Sep-13 08:00N 39°16' W 076°34'0 0.0
2017-Sep-13 07:30N 39°16' W 076°34'0 0.0
2017-Sep-13 07:00N 39°16' W 076°34'0 0.0
2017-Sep-13 06:30N 39°16' W 076°34'0 0.0
2017-Sep-13 06:00N 39°16' W 076°34'0 0.0
2017-Sep-13 05:30N 39°16' W 076°34'0 0.0
2017-Sep-13 05:00N 39°16' W 076°34'0 0.0
2017-Sep-13 04:30N 39°16' W 076°34'0 0.0
2017-Sep-13 04:00N 39°16' W 076°34'0 0.0
2017-Sep-13 03:30N 39°16' W 076°34'0 0.0
2017-Sep-13 03:00N 39°16' W 076°34'0 0.0
2017-Sep-13 02:30N 39°16' W 076°34'0 0.0
2017-Sep-13 02:00N 39°16' W 076°34'0 0.0
2017-Sep-13 01:30N 39°16' W 076°34'0 0.0
2017-Sep-13 01:00N 39°16' W 076°34'0 0.0
2017-Sep-13 00:30N 39°16' W 076°34'0 0.0
2017-Sep-12 23:59N 39°16' W 076°34'0 0.0
2017-Sep-12 23:30N 39°16' W 076°34'0 0.0
2017-Sep-12 22:59N 39°16' W 076°34'0 0.0
2017-Sep-12 22:29N 39°16' W 076°34'0 0.0
2017-Sep-12 21:59N 39°16' W 076°34'0 0.0
2017-Sep-12 21:29N 39°16' W 076°34'0 0.0
2017-Sep-12 20:59N 39°16' W 076°34'0 0.0
2017-Sep-12 20:29N 39°16' W 076°34'0 0.0
2017-Sep-12 19:59N 39°16' W 076°34'0 0.0
2017-Sep-12 19:29N 39°16' W 076°34'0 0.0
2017-Sep-12 18:59N 39°16' W 076°34'0 0.0
2017-Sep-12 18:29N 39°16' W 076°34'0 0.0
2017-Sep-12 17:59N 39°16' W 076°34'0 0.0
2017-Sep-12 17:29N 39°16' W 076°34'0 0.0
2017-Sep-12 16:59N 39°16' W 076°34'0 0.0
2017-Sep-12 16:29N 39°16' W 076°34'0 0.0
2017-Sep-12 15:59N 39°16' W 076°34'0 0.0
2017-Sep-12 15:29N 39°16' W 076°34'0 0.0
2017-Sep-12 14:59N 39°16' W 076°34'0 0.0
2017-Sep-12 14:29N 39°16' W 076°34'0 0.0
2017-Sep-12 13:59N 39°16' W 076°34'0 0.0
2017-Sep-12 13:29N 39°16' W 076°34'0 0.0
2017-Sep-12 12:59N 39°16' W 076°34'0 0.0
2017-Sep-12 12:29N 39°16' W 076°34'0 0.0
2017-Sep-12 11:59N 39°16' W 076°34'0 0.0
2017-Sep-12 11:29N 39°16' W 076°34'0 0.0
2017-Sep-12 10:59N 39°16' W 076°34'0 0.0
2017-Sep-12 10:29N 39°16' W 076°34'0 0.0
2017-Sep-12 09:59N 39°16' W 076°34'0 0.0
2017-Sep-12 09:29N 39°16' W 076°34'0 0.0
2017-Sep-12 08:59N 39°16' W 076°34'0 0.0
2017-Sep-12 08:29N 39°16' W 076°34'0 0.0
2017-Sep-12 07:59N 39°16' W 076°34'0 0.0
2017-Sep-12 07:29N 39°16' W 076°34'0 0.0
2017-Sep-12 06:59N 39°16' W 076°34'0 0.0
2017-Sep-12 06:29N 39°16' W 076°34'0 0.0
2017-Sep-12 05:59N 39°16' W 076°34'0 0.0
2017-Sep-12 05:29N 39°16' W 076°34'0 0.0
2017-Sep-12 04:59N 39°16' W 076°34'0 0.0
2017-Sep-12 04:29N 39°16' W 076°34'0 0.0
2017-Sep-12 03:59N 39°16' W 076°34'0 0.0
2017-Sep-12 03:29N 39°16' W 076°34'0 0.0
2017-Sep-12 02:59N 39°16' W 076°34'0 0.0
2017-Sep-12 02:29N 39°16' W 076°34'  
Track history (hours):
 
Tides and Currents Weather Stations Pressure Air Temp Water Temp Dewpoint Dewpoint Depression Visibility Wind Speed Wind Dir Waves Ship Positions

Pride of Baltimore II (United States)

Reproduction of an 1812-era Baltimore Clipper privateer.

Ship's website: http://www.pride2.org/

Owner: PRIDE OF BALTIMORE INC, BALTIMORE, MD. More information available from US FCC via Universal Licensing System and Coast Guard Vessel Documentation Center.

Last reported at 2017-Sep-22 02:00 UTC. Time now 2017-Sep-22 17:02 UTC.
Position N 39°16' W 076°34'.

Type: Sailing vessel. MMSI: 303302000.

Date/timePositionNaut miles runAvg speedWind from/ knotsBaromVisibWave heightAir tempDewpointWater temp
2017-Sep-22 02:00N 39°16' W 076°34'0 0.0
2017-Sep-22 01:30N 39°16' W 076°34'0 0.0
2017-Sep-22 01:00N 39°16' W 076°34'0 0.0
2017-Sep-22 00:30N 39°16' W 076°34'2 4.2
2017-Sep-22 00:01N 39°17' W 076°37'0 0.1
2017-Sep-21 23:30N 39°17' W 076°37'2 4.2
2017-Sep-21 23:00N 39°16' W 076°34'1 1.6
2017-Sep-21 22:28N 39°17' W 076°35'1 2.0
2017-Sep-21 22:00N 39°17' W 076°36'0 0.7
2017-Sep-21 21:30N 39°17' W 076°37'0 0.0
2017-Sep-21 21:00N 39°17' W 076°37'0 0.0
2017-Sep-21 20:30N 39°17' W 076°37'0 0.0
2017-Sep-21 20:00N 39°17' W 076°37'2 3.2
2017-Sep-21 19:30N 39°16' W 076°35'1 1.1
2017-Sep-21 19:00N 39°16' W 076°34'0 0.0
2017-Sep-21 18:30N 39°16' W 076°34'0 0.0
2017-Sep-21 18:00N 39°16' W 076°34'5443.1
2017-Sep-21 18:00N 39°12' W 076°30'510.8 010 / 61016.410.8 22.117.125.0
2017-Sep-21 17:30N 39°16' W 076°34'0 0.0
2017-Sep-21 17:00N 39°16' W 076°34'0 0.0
2017-Sep-21 16:30N 39°16' W 076°34'0 0.0
2017-Sep-21 16:00N 39°16' W 076°34'0 0.0
2017-Sep-21 15:30N 39°16' W 076°34'0 0.0
2017-Sep-21 15:00N 39°16' W 076°34'0 0.0
2017-Sep-21 14:30N 39°16' W 076°34'0 0.0
2017-Sep-21 14:00N 39°16' W 076°34'0 0.0
2017-Sep-21 13:30N 39°16' W 076°34'0 0.0
2017-Sep-21 13:00N 39°16' W 076°34'0 0.0
2017-Sep-21 12:30N 39°16' W 076°34'0 0.0
2017-Sep-21 12:00N 39°16' W 076°34'0 0.0
2017-Sep-21 11:30N 39°16' W 076°34'0 0.0
2017-Sep-21 11:00N 39°16' W 076°34'0 0.0
2017-Sep-21 10:30N 39°16' W 076°34'0 0.0
2017-Sep-21 10:00N 39°16' W 076°34'0 0.0
2017-Sep-21 09:30N 39°16' W 076°34'0 0.0
2017-Sep-21 09:00N 39°16' W 076°34'0 0.0
2017-Sep-21 08:30N 39°16' W 076°34'0 0.0
2017-Sep-21 08:00N 39°16' W 076°34'0 0.0
2017-Sep-21 07:30N 39°16' W 076°34'0 0.0
2017-Sep-21 07:00N 39°16' W 076°34'0 0.0
2017-Sep-21 06:30N 39°16' W 076°34'0 0.0
2017-Sep-21 06:00N 39°16' W 076°34'0 0.0
2017-Sep-21 05:30N 39°16' W 076°34'0 0.0
2017-Sep-21 05:00N 39°16' W 076°34'0 0.0
2017-Sep-21 04:30N 39°16' W 076°34'0 0.0
2017-Sep-21 04:00N 39°16' W 076°34'0 0.0
2017-Sep-21 03:30N 39°16' W 076°34'0 0.0
2017-Sep-21 03:00N 39°16' W 076°34'0 0.0
2017-Sep-21 02:30N 39°16' W 076°34'0 0.0
2017-Sep-21 02:00N 39°16' W 076°34'0 0.0
2017-Sep-21 01:30N 39°16' W 076°34'0 0.6
2017-Sep-21 01:00N 39°16' W 076°34'1 2.6
2017-Sep-21 00:29N 39°15' W 076°34'0 0.0
2017-Sep-20 23:59N 39°15' W 076°34'0 0.0
2017-Sep-20 23:29N 39°15' W 076°34'0 0.0
2017-Sep-20 22:59N 39°15' W 076°34'0 0.0
2017-Sep-20 22:29N 39°15' W 076°34'0 0.0
2017-Sep-20 21:59N 39°15' W 076°34'0 0.0
2017-Sep-20 21:29N 39°15' W 076°34'0 0.0
2017-Sep-20 20:59N 39°15' W 076°34'0 0.0
2017-Sep-20 20:29N 39°15' W 076°34'0 0.0
2017-Sep-20 19:59N 39°15' W 076°34'0 0.2
2017-Sep-20 19:30N 39°15' W 076°34'1 2.8
2017-Sep-20 18:59N 39°16' W 076°34'0 0.0
2017-Sep-20 18:29N 39°16' W 076°34'510.9
2017-Sep-20 18:00N 39°12' W 076°30'5373.6 330 / 91012.810.8 31.818.326.0
2017-Sep-20 17:59N 39°16' W 076°34'0 0.0
2017-Sep-20 17:29N 39°16' W 076°34'0 0.0
2017-Sep-20 16:59N 39°16' W 076°34'0 0.0
2017-Sep-20 16:29N 39°16' W 076°34'0 0.0
2017-Sep-20 15:59N 39°16' W 076°34'0 0.0
2017-Sep-20 15:29N 39°16' W 076°34'0 0.0
2017-Sep-20 14:59N 39°16' W 076°34'0 0.0
2017-Sep-20 13:59N 39°16' W 076°34'0 0.0
2017-Sep-20 13:29N 39°16' W 076°34'0 0.0
2017-Sep-20 12:59N 39°16' W 076°34'0 0.0
2017-Sep-20 12:29N 39°16' W 076°34'0 0.0
2017-Sep-20 11:59N 39°16' W 076°34'0 0.0
2017-Sep-20 11:28N 39°16' W 076°34'0 0.0
2017-Sep-20 10:58N 39°16' W 076°34'0 0.0
2017-Sep-20 10:28N 39°16' W 076°34'0 0.0
2017-Sep-20 09:58N 39°16' W 076°34'0 0.0
2017-Sep-20 09:28N 39°16' W 076°34'0 0.0
2017-Sep-20 08:58N 39°16' W 076°34'0 0.0
2017-Sep-20 08:28N 39°16' W 076°34'0 0.0
2017-Sep-20 07:58N 39°16' W 076°34'0 0.0
2017-Sep-20 07:28N 39°16' W 076°34'0 0.0
2017-Sep-20 06:58N 39°16' W 076°34'0 0.0
2017-Sep-20 06:28N 39°16' W 076°34'0 0.0
2017-Sep-20 05:58N 39°16' W 076°34'0 0.0
2017-Sep-20 05:28N 39°16' W 076°34'0 0.0
2017-Sep-20 04:58N 39°16' W 076°34'0 0.0
2017-Sep-20 04:28N 39°16' W 076°34'0 0.0
2017-Sep-20 03:58N 39°16' W 076°34'0 0.0
2017-Sep-20 03:28N 39°16' W 076°34'0 0.0
2017-Sep-20 02:58N 39°16' W 076°34'0 0.0
2017-Sep-20 02:28N 39°16' W 076°34'0 0.0
2017-Sep-20 01:58N 39°16' W 076°34'0 0.0
2017-Sep-20 01:28N 39°16' W 076°34'0 0.0
2017-Sep-20 00:58N 39°16' W 076°34'0 0.0
2017-Sep-20 00:28N 39°16' W 076°34'0 0.0
2017-Sep-19 23:58N 39°16' W 076°34'1 1.8
2017-Sep-19 23:30N 39°17' W 076°35'1 1.4
2017-Sep-19 23:00N 39°16' W 076°36'0 0.0
2017-Sep-19 22:30N 39°16' W 076°36'0 0.0
2017-Sep-19 22:00N 39°16' W 076°36'0 0.0
2017-Sep-19 21:30N 39°16' W 076°36'0 0.0
2017-Sep-19 21:00N 39°16' W 076°36'0 0.0
2017-Sep-19 20:30N 39°16' W 076°36'0 0.0
2017-Sep-19 20:00N 39°16' W 076°36'0 0.0
2017-Sep-19 19:30N 39°16' W 076°36'0 0.0
2017-Sep-19 19:00N 39°16' W 076°36'0 0.3
2017-Sep-19 18:30N 39°17' W 076°36'1 1.6
2017-Sep-19 18:00N 39°16' W 076°35'1 1.2
2017-Sep-19 17:30N 39°16' W 076°34'0 0.0
2017-Sep-19 17:00N 39°16' W 076°34'0 0.0
2017-Sep-19 16:30N 39°16' W 076°34'0 0.0
2017-Sep-19 16:00N 39°16' W 076°34'0 0.0
2017-Sep-19 15:30N 39°16' W 076°34'0 0.0
2017-Sep-19 15:00N 39°16' W 076°34'0 0.0
2017-Sep-19 14:30N 39°16' W 076°34'0 0.0
2017-Sep-19 14:00N 39°16' W 076°34'0 0.0
2017-Sep-19 13:30N 39°16' W 076°34'0 0.0
2017-Sep-19 13:00N 39°16' W 076°34'0 0.0
2017-Sep-19 12:30N 39°16' W 076°34'0 0.0
2017-Sep-19 12:00N 39°16' W 076°34'0 0.0
2017-Sep-19 11:30N 39°16' W 076°34'0 0.0
2017-Sep-19 11:00N 39°16' W 076°34'0 0.0
2017-Sep-19 10:30N 39°16' W 076°34'0 0.0
2017-Sep-19 10:00N 39°16' W 076°34'0 0.0
2017-Sep-19 09:30N 39°16' W 076°34'0 0.0
2017-Sep-19 09:00N 39°16' W 076°34'0 0.0
2017-Sep-19 08:30N 39°16' W 076°34'0 0.0
2017-Sep-19 08:00N 39°16' W 076°34'0 0.0
2017-Sep-19 07:30N 39°16' W 076°34'0 0.0
2017-Sep-19 07:00N 39°16' W 076°34'0 0.0
2017-Sep-19 06:30N 39°16' W 076°34'0 0.0
2017-Sep-19 06:00N 39°16' W 076°34'0 0.0
2017-Sep-19 05:27N 39°16' W 076°34'0 0.0
2017-Sep-19 05:00N 39°16' W 076°34'0 0.0
2017-Sep-19 04:30N 39°16' W 076°34'0 0.0
2017-Sep-19 04:00N 39°16' W 076°34'0 0.0
2017-Sep-19 03:30N 39°16' W 076°34'0 0.0
2017-Sep-19 03:00N 39°16' W 076°34'0 0.0
2017-Sep-19 02:30N 39°16' W 076°34'0 0.0
2017-Sep-19 02:00N 39°16' W 076°34'0 0.0
2017-Sep-19 01:30N 39°16' W 076°34'0 0.0
2017-Sep-19 01:00N 39°16' W 076°34'0 0.0
2017-Sep-19 00:30N 39°16' W 076°34'0 0.0
2017-Sep-19 00:00N 39°16' W 076°34'0 0.0
2017-Sep-18 23:30N 39°16' W 076°34'0 0.0
2017-Sep-18 23:00N 39°16' W 076°34'0 0.0
2017-Sep-18 22:30N 39°16' W 076°34'0 0.0
2017-Sep-18 22:00N 39°16' W 076°34'0 0.0
2017-Sep-18 21:29N 39°16' W 076°34'0 0.0
2017-Sep-18 20:59N 39°16' W 076°34'0 0.0
2017-Sep-18 20:29N 39°16' W 076°34'0 0.0
2017-Sep-18 19:59N 39°16' W 076°34'0 0.0
2017-Sep-18 19:29N 39°16' W 076°34'0 0.0
2017-Sep-18 18:59N 39°16' W 076°34'0 0.0
2017-Sep-18 18:29N 39°16' W 076°34'510.6
2017-Sep-18 18:00N 39°12' W 076°30'52716.1 140 / 31018.4 5.4 23.719.425.2
2017-Sep-18 17:59N 39°16' W 076°34'0 0.0
2017-Sep-18 17:29N 39°16' W 076°34'0 0.0
2017-Sep-18 16:59N 39°16' W 076°34'0 0.0
2017-Sep-18 16:29N 39°16' W 076°34'0 0.0
2017-Sep-18 15:59N 39°16' W 076°34'0 0.0
2017-Sep-18 15:29N 39°16' W 076°34'0 0.0
2017-Sep-18 14:59N 39°16' W 076°34'0 0.0
2017-Sep-18 14:29N 39°16' W 076°34'0 0.0
2017-Sep-18 13:59N 39°16' W 076°34'0 0.0
2017-Sep-18 13:29N 39°16' W 076°34'0 0.0
2017-Sep-18 12:59N 39°16' W 076°34'0 0.0
2017-Sep-18 12:29N 39°16' W 076°34'0 0.0
2017-Sep-18 11:59N 39°16' W 076°34'0 0.0
2017-Sep-18 11:29N 39°16' W 076°34'0 0.0
2017-Sep-18 10:59N 39°16' W 076°34'0 0.0
2017-Sep-18 10:29N 39°16' W 076°34'0 0.0
2017-Sep-18 09:59N 39°16' W 076°34'0 0.0
2017-Sep-18 09:29N 39°16' W 076°34'0 0.0
2017-Sep-18 08:59N 39°16' W 076°34'0 0.0
2017-Sep-18 08:29N 39°16' W 076°34'0 0.0
2017-Sep-18 07:59N 39°16' W 076°34'0 0.0
2017-Sep-18 07:29N 39°16' W 076°34'0 0.0
2017-Sep-18 06:59N 39°16' W 076°34'0 0.0
2017-Sep-18 06:29N 39°16' W 076°34'0 0.0
2017-Sep-18 05:59N 39°16' W 076°34'0 0.0
2017-Sep-18 05:29N 39°16' W 076°34'0 0.0
2017-Sep-18 04:59N 39°16' W 076°34'0 0.0
2017-Sep-18 04:29N 39°16' W 076°34'0 0.0
2017-Sep-18 03:59N 39°16' W 076°34'0 0.0
2017-Sep-18 03:29N 39°16' W 076°34'0 0.0
2017-Sep-18 02:59N 39°16' W 076°34'0 0.0
2017-Sep-18 02:29N 39°16' W 076°34'0 0.0
2017-Sep-18 01:59N 39°16' W 076°34'0 0.0
2017-Sep-18 01:29N 39°16' W 076°34'0 0.0
2017-Sep-18 00:59N 39°16' W 076°34'0 0.0
2017-Sep-18 00:29N 39°16' W 076°34'0 0.0
2017-Sep-17 23:59N 39°16' W 076°34'0 0.0
2017-Sep-17 23:29N 39°16' W 076°34'0 0.0
2017-Sep-17 22:59N 39°16' W 076°34'0 0.0
2017-Sep-17 22:29N 39°16' W 076°34'0 0.0
2017-Sep-17 21:59N 39°16' W 076°34'0 0.0
2017-Sep-17 21:29N 39°16' W 076°34'0 0.0
2017-Sep-17 20:59N 39°16' W 076°34'0 1.0
2017-Sep-17 20:30N 39°16' W 076°35'2 0.5
2017-Sep-17 16:52N 39°17' W 076°37'0 0.0
2017-Sep-17 15:10N 39°17' W 076°37'0 0.0
2017-Sep-17 14:52N 39°17' W 076°37'0 0.0
2017-Sep-17 14:25N 39°17' W 076°37'0 0.0
2017-Sep-17 13:58N 39°17' W 076°37'0 0.0
2017-Sep-17 13:28N 39°17' W 076°37'0 0.0
2017-Sep-17 12:55N 39°17' W 076°37'0 0.0
2017-Sep-17 12:28N 39°17' W 076°37'0 0.0
2017-Sep-17 11:52N 39°17' W 076°37'0 0.0
2017-Sep-17 11:28N 39°17' W 076°37'0 0.0
2017-Sep-17 10:58N 39°17' W 076°37'0 0.0
2017-Sep-17 10:28N 39°17' W 076°37'0 0.0
2017-Sep-17 09:52N 39°17' W 076°37'0 0.0
2017-Sep-17 08:10N 39°17' W 076°37'0 0.0
2017-Sep-17 07:43N 39°17' W 076°37'0 0.0
2017-Sep-17 07:16N 39°17' W 076°37'0 0.0
2017-Sep-17 06:52N 39°17' W 076°37'0 0.0
2017-Sep-17 06:28N 39°17' W 076°37'0 0.0
2017-Sep-17 05:58N 39°17' W 076°37'0 0.0
2017-Sep-17 05:28N 39°17' W 076°37'0 0.0
2017-Sep-17 04:58N 39°17' W 076°37'0 0.0
2017-Sep-17 04:28N 39°17' W 076°37'0 0.0
2017-Sep-17 03:58N 39°17' W 076°37'0 0.0
2017-Sep-17 03:28N 39°17' W 076°37'0 0.0
2017-Sep-17 02:58N 39°17' W 076°37'0 0.0
2017-Sep-17 02:28N 39°17' W 076°37'0 0.0
2017-Sep-17 01:58N 39°17' W 076°37'0 0.0
2017-Sep-17 01:28N 39°17' W 076°37'0 0.0
2017-Sep-17 00:58N 39°17' W 076°37'0 0.0
2017-Sep-17 00:28N 39°17' W 076°37'0 0.0
2017-Sep-17 00:01N 39°17' W 076°37'0 0.0
2017-Sep-16 23:31N 39°17' W 076°37'0 0.0
2017-Sep-16 23:00N 39°17' W 076°37'0 0.0
2017-Sep-16 22:30N 39°17' W 076°37'0 0.0
2017-Sep-16 22:00N 39°17' W 076°37'0 0.0
2017-Sep-16 21:30N 39°17' W 076°37'0 0.0
2017-Sep-16 21:00N 39°17' W 076°37'1 2.9
2017-Sep-16 20:30N 39°16' W 076°35'1 1.8
2017-Sep-16 20:00N 39°16' W 076°35'0 0.1
2017-Sep-16 19:31N 39°16' W 076°35'2 3.5
2017-Sep-16 19:00N 39°17' W 076°36'0 0.7
2017-Sep-16 18:28N 39°17' W 076°37'0 0.0
2017-Sep-16 17:58N 39°17' W 076°37'0 0.0
2017-Sep-16 17:28N 39°17' W 076°37'0 0.0
2017-Sep-16 16:55N 39°17' W 076°37'0 0.0
2017-Sep-16 16:25N 39°17' W 076°37'0 0.0
2017-Sep-16 15:55N 39°17' W 076°37'0 0.0
2017-Sep-16 15:22N 39°17' W 076°37'0 0.0
2017-Sep-16 14:58N 39°17' W 076°37'0 0.0
2017-Sep-16 14:28N 39°17' W 076°37'0 0.0
2017-Sep-16 13:58N 39°17' W 076°37'0 0.0
2017-Sep-16 13:28N 39°17' W 076°37'0 0.0
2017-Sep-16 12:58N 39°17' W 076°37'0 0.0
2017-Sep-16 12:28N 39°17' W 076°37'0 0.0
2017-Sep-16 11:58N 39°17' W 076°37'0 0.0
2017-Sep-16 11:28N 39°17' W 076°37'0 0.0
2017-Sep-16 10:58N 39°17' W 076°37'0 0.0
2017-Sep-16 10:28N 39°17' W 076°37'0 0.0
2017-Sep-16 09:58N 39°17' W 076°37'0 0.0
2017-Sep-16 09:28N 39°17' W 076°37'0 0.0
2017-Sep-16 08:58N 39°17' W 076°37'0 0.0
2017-Sep-16 08:28N 39°17' W 076°37'0 0.0
2017-Sep-16 07:58N 39°17' W 076°37'0 0.0
2017-Sep-16 07:28N 39°17' W 076°37'0 0.0
2017-Sep-16 06:58N 39°17' W 076°37'0 0.0
2017-Sep-16 06:28N 39°17' W 076°37'0 0.0
2017-Sep-16 05:58N 39°17' W 076°37'0 0.0
2017-Sep-16 05:28N 39°17' W 076°37'0 0.0
2017-Sep-16 04:58N 39°17' W 076°37'0 0.0
2017-Sep-16 04:28N 39°17' W 076°37'0 0.0
2017-Sep-16 03:55N 39°17' W 076°37'0 0.0
2017-Sep-16 03:28N 39°17' W 076°37'0 0.0
2017-Sep-16 02:58N 39°17' W 076°37'0 0.0
2017-Sep-16 02:28N 39°17' W 076°37'0 0.0
2017-Sep-16 01:58N 39°17' W 076°37'0 0.0
2017-Sep-16 01:28N 39°17' W 076°37'0 0.0
2017-Sep-16 00:58N 39°17' W 076°37'0 0.0
2017-Sep-16 00:28N 39°17' W 076°37'0 0.0
2017-Sep-15 23:58N 39°17' W 076°37'0 0.0
2017-Sep-15 23:28N 39°17' W 076°37'0 0.0
2017-Sep-15 22:58N 39°17' W 076°37'0 0.0
2017-Sep-15 22:25N 39°17' W 076°37'0 0.0
2017-Sep-15 21:49N 39°17' W 076°37'0 0.0
2017-Sep-15 21:28N 39°17' W 076°37'0 0.0
2017-Sep-15 20:58N 39°17' W 076°37'0 0.0
2017-Sep-15 20:28N 39°17' W 076°37'0 0.0
2017-Sep-15 19:58N 39°17' W 076°37'0 0.0
2017-Sep-15 19:28N 39°17' W 076°37'0 0.0
2017-Sep-15 18:58N 39°17' W 076°37'0 0.3
2017-Sep-15 18:30N 39°17' W 076°36'1 1.9
2017-Sep-15 18:01N 39°17' W 076°35'3 5.6
2017-Sep-15 17:31N 39°14' W 076°33'1 2.9
2017-Sep-15 17:01N 39°14' W 076°32'2 3.4
2017-Sep-15 16:31N 39°12' W 076°31'1 2.6
2017-Sep-15 16:00N 39°12' W 076°29'1 1.9
2017-Sep-15 15:30N 39°13' W 076°29'1 2.8
2017-Sep-15 15:00N 39°12' W 076°31'4 7.0
2017-Sep-15 14:30N 39°15' W 076°34'3 5.0
2017-Sep-15 14:01N 39°17' W 076°36'0 0.0
2017-Sep-15 13:30N 39°17' W 076°36'1 1.6
2017-Sep-15 12:58N 39°17' W 076°37'0 0.0
2017-Sep-15 12:28N 39°17' W 076°37'0 0.0
2017-Sep-15 11:58N 39°17' W 076°37'0 0.0
2017-Sep-15 11:28N 39°17' W 076°37'0 0.0
2017-Sep-15 10:58N 39°17' W 076°37'0 0.0
2017-Sep-15 10:28N 39°17' W 076°37'0 0.0
2017-Sep-15 09:58N 39°17' W 076°37'0 0.0
2017-Sep-15 09:25N 39°17' W 076°37'0 0.0
2017-Sep-15 08:58N 39°17' W 076°37'0 0.0
2017-Sep-15 08:28N 39°17' W 076°37'0 0.0
2017-Sep-15 07:58N 39°17' W 076°37'0 0.0
2017-Sep-15 07:31N 39°17' W 076°37'0 0.0
2017-Sep-15 07:01N 39°17' W 076°37'0 0.0
2017-Sep-15 06:30N 39°17' W 076°37'0 0.0
2017-Sep-15 06:00N 39°17' W 076°37'0 0.0
2017-Sep-15 05:30N 39°17' W 076°37'0 0.0
2017-Sep-15 05:00N 39°17' W 076°37'0 0.0
2017-Sep-15 04:30N 39°17' W 076°37'0 0.0
2017-Sep-15 04:00N 39°17' W 076°37'0 0.0
2017-Sep-15 03:30N 39°17' W 076°37'0 0.0
2017-Sep-15 03:00N 39°17' W 076°37'0 0.0
2017-Sep-15 02:30N 39°17' W 076°37'0 0.0
2017-Sep-15 02:00N 39°17' W 076°37'0 0.0
2017-Sep-15 01:27N 39°17' W 076°37'0 0.0
2017-Sep-15 01:00N 39°17' W 076°37'0 0.0
2017-Sep-15 00:30N 39°17' W 076°37'0 0.0
2017-Sep-15 00:00N 39°17' W 076°37'0 0.0
2017-Sep-14 23:27N 39°17' W 076°37'1 1.1
2017-Sep-14 23:01N 39°17' W 076°36'2 4.8
2017-Sep-14 22:31N 39°15' W 076°34'1 1.5
2017-Sep-14 22:00N 39°16' W 076°34'2 4.4
2017-Sep-14 21:31N 39°17' W 076°37'0 0.0
2017-Sep-14 20:56N 39°17' W 076°37'0 0.0
2017-Sep-14 20:26N 39°17' W 076°37'0 0.0
2017-Sep-14 19:59N 39°17' W 076°37'0 0.0
2017-Sep-14 19:29N 39°17' W 076°37'0 0.0
2017-Sep-14 18:56N 39°17' W 076°37'0 1.1
2017-Sep-14 18:30N 39°17' W 076°36'2 3.3
2017-Sep-14 18:00N 39°16' W 076°34'0 0.0
2017-Sep-14 17:30N 39°16' W 076°34'0 0.0
2017-Sep-14 17:00N 39°16' W 076°34'0 0.9
2017-Sep-14 16:30N 39°16' W 076°35'0 0.3
2017-Sep-14 16:00N 39°16' W 076°34'0 1.0
2017-Sep-14 15:30N 39°15' W 076°34'1 1.8
2017-Sep-14 14:59N 39°16' W 076°34'0 0.0
2017-Sep-14 14:28N 39°16' W 076°34'0 0.0
2017-Sep-14 13:58N 39°16' W 076°34'0 0.0
2017-Sep-14 13:28N 39°16' W 076°34'0 0.0
2017-Sep-14 12:58N 39°16' W 076°34'0 0.0
2017-Sep-14 12:28N 39°16' W 076°34'0 0.0
2017-Sep-14 11:58N 39°16' W 076°34'0 0.0
2017-Sep-14 11:28N 39°16' W 076°34'0 0.0
2017-Sep-14 10:58N 39°16' W 076°34'0 0.0
2017-Sep-14 10:28N 39°16' W 076°34'0 0.0
2017-Sep-14 09:58N 39°16' W 076°34'0 0.0
2017-Sep-14 09:28N 39°16' W 076°34'0 0.0
2017-Sep-14 08:58N 39°16' W 076°34'0 0.0
2017-Sep-14 08:28N 39°16' W 076°34'0 0.0
2017-Sep-14 07:58N 39°16' W 076°34'0 0.0
2017-Sep-14 07:28N 39°16' W 076°34'0 0.0
2017-Sep-14 06:58N 39°16' W 076°34'0 0.0
2017-Sep-14 06:28N 39°16' W 076°34'0 0.0
2017-Sep-14 05:58N 39°16' W 076°34'0 0.0
2017-Sep-14 05:28N 39°16' W 076°34'0 0.0
2017-Sep-14 04:58N 39°16' W 076°34'0 0.0
2017-Sep-14 04:28N 39°16' W 076°34'0 0.0
2017-Sep-14 03:58N 39°16' W 076°34'0 0.0
2017-Sep-14 03:28N 39°16' W 076°34'0 0.0
2017-Sep-14 02:58N 39°16' W 076°34'0 0.0
2017-Sep-14 02:28N 39°16' W 076°34'0 0.0
2017-Sep-14 01:58N 39°16' W 076°34'0 0.0
2017-Sep-14 01:28N 39°16' W 076°34'0 0.0
2017-Sep-14 00:58N 39°16' W 076°34'0 0.5
2017-Sep-14 00:30N 39°16' W 076°34'2 3.8
2017-Sep-14 00:00N 39°17' W 076°37'2 3.7
2017-Sep-13 23:30N 39°16' W 076°35'1 1.1
2017-Sep-13 23:00N 39°16' W 076°35'1 1.8
2017-Sep-13 22:31N 39°16' W 076°35'1 2.8
2017-Sep-13 21:59N 39°17' W 076°37'0 0.0
2017-Sep-13 21:29N 39°17' W 076°37'0 0.0
2017-Sep-13 20:50N 39°17' W 076°37'0 0.0
2017-Sep-13 20:16N 39°17' W 076°37'0 0.0
2017-Sep-13 19:58N 39°17' W 076°37'0 0.0
2017-Sep-13 19:28N 39°17' W 076°37'0 0.0
2017-Sep-13 18:52N 39°17' W 076°37'0 0.0
2017-Sep-13 18:28N 39°17' W 076°37'0 0.0
2017-Sep-13 17:58N 39°17' W 076°37'0 0.0
2017-Sep-13 17:28N 39°17' W 076°37'0 0.4
2017-Sep-13 17:00N 39°17' W 076°36'2 3.8
2017-Sep-13 16:30N 39°15' W 076°35'0 0.8
2017-Sep-13 16:00N 39°16' W 076°35'1 2.2
2017-Sep-13 15:30N 39°17' W 076°35'1 2.3
2017-Sep-13 14:58N 39°17' W 076°37'0 0.8
2017-Sep-13 14:30N 39°17' W 076°36'2 3.4
2017-Sep-13 14:00N 39°16' W 076°34'0 0.0
2017-Sep-13 13:30N 39°16' W 076°34'0 0.0
2017-Sep-13 13:00N 39°16' W 076°34'0 0.0
2017-Sep-13 12:30N 39°16' W 076°34'0 0.0
2017-Sep-13 12:00N 39°16' W 076°34'0 0.0
2017-Sep-13 11:30N 39°16' W 076°34'0 0.0
2017-Sep-13 11:00N 39°16' W 076°34'0 0.0
2017-Sep-13 10:30N 39°16' W 076°34'0 0.0
2017-Sep-13 10:00N 39°16' W 076°34'0 0.0
2017-Sep-13 09:30N 39°16' W 076°34'0 0.0
2017-Sep-13 09:00N 39°16' W 076°34'0 0.0
2017-Sep-13 08:30N 39°16' W 076°34'0 0.0
2017-Sep-13 08:00N 39°16' W 076°34'0 0.0
2017-Sep-13 07:30N 39°16' W 076°34'0 0.0
2017-Sep-13 07:00N 39°16' W 076°34'0 0.0
2017-Sep-13 06:30N 39°16' W 076°34'0 0.0
2017-Sep-13 06:00N 39°16' W 076°34'0 0.0
2017-Sep-13 05:30N 39°16' W 076°34'0 0.0
2017-Sep-13 05:00N 39°16' W 076°34'0 0.0
2017-Sep-13 04:30N 39°16' W 076°34'0 0.0
2017-Sep-13 04:00N 39°16' W 076°34'0 0.0
2017-Sep-13 03:30N 39°16' W 076°34'0 0.0
2017-Sep-13 03:00N 39°16' W 076°34'0 0.0
2017-Sep-13 02:30N 39°16' W 076°34'0 0.0
2017-Sep-13 02:00N 39°16' W 076°34'0 0.0
2017-Sep-13 01:30N 39°16' W 076°34'0 0.0
2017-Sep-13 01:00N 39°16' W 076°34'0 0.0
2017-Sep-13 00:30N 39°16' W 076°34'0 0.0
2017-Sep-12 23:59N 39°16' W 076°34'0 0.0
2017-Sep-12 23:30N 39°16' W 076°34'0 0.0
2017-Sep-12 22:59N 39°16' W 076°34'0 0.0
2017-Sep-12 22:29N 39°16' W 076°34'0 0.0
2017-Sep-12 21:59N 39°16' W 076°34'0 0.0
2017-Sep-12 21:29N 39°16' W 076°34'0 0.0
2017-Sep-12 20:59N 39°16' W 076°34'0 0.0
2017-Sep-12 20:29N 39°16' W 076°34'0 0.0
2017-Sep-12 19:59N 39°16' W 076°34'0 0.0
2017-Sep-12 19:29N 39°16' W 076°34'0 0.0
2017-Sep-12 18:59N 39°16' W 076°34'0 0.0
2017-Sep-12 18:29N 39°16' W 076°34'0 0.0
2017-Sep-12 17:59N 39°16' W 076°34'0 0.0
2017-Sep-12 17:29N 39°16' W 076°34'0 0.0
2017-Sep-12 16:59N 39°16' W 076°34'0 0.0
2017-Sep-12 16:29N 39°16' W 076°34'0 0.0
2017-Sep-12 15:59N 39°16' W 076°34'0 0.0
2017-Sep-12 15:29N 39°16' W 076°34'0 0.0
2017-Sep-12 14:59N 39°16' W 076°34'0 0.0
2017-Sep-12 14:29N 39°16' W 076°34'0 0.0
2017-Sep-12 13:59N 39°16' W 076°34'0 0.0
2017-Sep-12 13:29N 39°16' W 076°34'0 0.0
2017-Sep-12 12:59N 39°16' W 076°34'0 0.0
2017-Sep-12 12:29N 39°16' W 076°34'0 0.0
2017-Sep-12 11:59N 39°16' W 076°34'0 0.0
2017-Sep-12 11:29N 39°16' W 076°34'0 0.0
2017-Sep-12 10:59N 39°16' W 076°34'0 0.0
2017-Sep-12 10:29N 39°16' W 076°34'0 0.0
2017-Sep-12 09:59N 39°16' W 076°34'0 0.0
2017-Sep-12 09:29N 39°16' W 076°34'0 0.0
2017-Sep-12 08:59N 39°16' W 076°34'0 0.0
2017-Sep-12 08:29N 39°16' W 076°34'0 0.0
2017-Sep-12 07:59N 39°16' W 076°34'0 0.0
2017-Sep-12 07:29N 39°16' W 076°34'0 0.0
2017-Sep-12 06:59N 39°16' W 076°34'0 0.0
2017-Sep-12 06:29N 39°16' W 076°34'0 0.0
2017-Sep-12 05:59N 39°16' W 076°34'0 0.0
2017-Sep-12 05:29N 39°16' W 076°34'0 0.0
2017-Sep-12 04:59N 39°16' W 076°34'0 0.0
2017-Sep-12 04:29N 39°16' W 076°34'0 0.0
2017-Sep-12 03:59N 39°16' W 076°34'0 0.0
2017-Sep-12 03:29N 39°16' W 076°34'0 0.0
2017-Sep-12 02:59N 39°16' W 076°34'0 0.0
2017-Sep-12 02:29N 39°16' W 076°34'  

Dump ship's entire track history